Terminal Aerodrome Forecast
Issued by NWS

Home | Current Version | Previous Version | Graphics & Text | Print | Product List | Glossary On
Versions: 1 2 3 4 5 6 7 8 9 10 11 12 13 14
419
FTUS43 KGRB 241124
TAFAUW
TAF
KAUW 241124Z 2412/2512 01007KT P6SM SCT008 OVC015
      TEMPO 2412/2414 5SM -SHRA BR OVC008
     FM241400 04007KT P6SM OVC012
     FM241900 05008KT P6SM BKN025
     FM250900 02003KT 5SM BR OVC008=

USA.gov is the U.S. government's official web portal to all federal, state and local government web resources and services.